createdAt,value
2022-08-17T00:01:31.396Z,100319.94
2022-08-17T00:04:19.036Z,100326.84
2022-08-17T00:06:46.077Z,100320.53
2022-08-17T00:09:19.026Z,100318.41
2022-08-17T00:12:34.845Z,100318.41
2022-08-17T00:14:35.008Z,100308.81
2022-08-17T00:17:03.714Z,100320.25
2022-08-17T00:19:30.381Z,100318.69
2022-08-17T00:22:33.882Z,100315.66
2022-08-17T00:24:47.273Z,100317.63
2022-08-17T00:27:13.829Z,100307.22
2022-08-17T00:29:40.539Z,100323.81
2022-08-17T00:33:12.434Z,100326.19
2022-08-17T00:34:53.814Z,100322.66
2022-08-17T00:37:20.396Z,100321.97
2022-08-17T00:39:46.933Z,100320.22
2022-08-17T00:42:18.956Z,100312.13
2022-08-17T00:44:46.177Z,100313.84
2022-08-17T00:47:12.713Z,100309.25
2022-08-17T00:49:39.569Z,100314.38
2022-08-17T00:52:15.524Z,100322.44
2022-08-17T00:54:44.876Z,100324.25
2022-08-17T00:57:34.424Z,100318.63
2022-08-17T01:00:08.940Z,100321.88
2022-08-17T01:02:41.762Z,100324.38
2022-08-17T01:05:16.362Z,100324.06
2022-08-17T01:07:47.545Z,100313.28
2022-08-17T01:10:58.269Z,100321.28
2022-08-17T01:13:02.747Z,100313.56
2022-08-17T01:15:36.165Z,100320.69
2022-08-17T01:18:05.392Z,100318.16
2022-08-17T01:20:32.503Z,100319.00
2022-08-17T01:23:18.479Z,100317.13
2022-08-17T01:25:54.192Z,100312.66
2022-08-17T01:28:52.832Z,100313.25
2022-08-17T01:31:09.708Z,100308.31
2022-08-17T01:33:36.680Z,100303.75
2022-08-17T01:36:04.987Z,100311.50
2022-08-17T01:38:31.910Z,100299.66
2022-08-17T01:41:03.200Z,100309.31
2022-08-17T01:43:43.565Z,100309.56
2022-08-17T01:46:16.826Z,100306.97
2022-08-17T01:48:47.255Z,100303.13
2022-08-17T01:51:15.510Z,100312.06
2022-08-17T01:53:47.303Z,100313.69
2022-08-17T01:56:18.245Z,100312.94
2022-08-17T01:58:45.779Z,100316.25
2022-08-17T02:01:14.760Z,100298.75
2022-08-17T02:03:41.987Z,100314.09
2022-08-17T02:06:27.690Z,100301.81
2022-08-17T02:09:03.153Z,100307.81
2022-08-17T02:11:32.388Z,100296.44
2022-08-17T02:14:03.202Z,100292.22
2022-08-17T02:16:37.564Z,100299.78
2022-08-17T02:19:07.794Z,100296.06
2022-08-17T02:21:36.120Z,100295.25
2022-08-17T02:24:03.706Z,100294.25
2022-08-17T02:26:30.162Z,100289.50
2022-08-17T02:28:56.861Z,100300.75
2022-08-17T02:31:23.419Z,100295.41
2022-08-17T02:34:00.361Z,100304.03
2022-08-17T02:36:34.440Z,100313.28
2022-08-17T02:39:04.967Z,100307.03
2022-08-17T02:41:31.491Z,100303.63
2022-08-17T02:43:58.657Z,100308.50
2022-08-17T02:46:25.532Z,100298.25
2022-08-17T02:48:52.054Z,100293.69
2022-08-17T02:51:18.714Z,100299.56
2022-08-17T02:53:45.163Z,100300.28
2022-08-17T02:56:11.656Z,100311.50
2022-08-17T02:58:38.269Z,100286.63
2022-08-17T03:01:07.474Z,100311.16
2022-08-17T03:03:35.167Z,100293.38
2022-08-17T03:06:02.105Z,100303.22
2022-08-17T03:08:29.124Z,100296.06
2022-08-17T03:10:56.431Z,100292.78
2022-08-17T03:13:23.445Z,100288.50
2022-08-17T03:15:50.636Z,100290.81
2022-08-17T03:18:24.547Z,100290.59
2022-08-17T03:20:57.244Z,100285.50
2022-08-17T03:23:25.444Z,100285.53
2022-08-17T03:25:53.962Z,100295.50
2022-08-17T03:28:21.641Z,100283.47
2022-08-17T03:30:48.563Z,100283.84
2022-08-17T03:33:16.846Z,100280.06
2022-08-17T03:35:43.554Z,100289.66
2022-08-17T03:38:11.876Z,100290.31
2022-08-17T03:40:56.259Z,100299.00
2022-08-17T03:43:25.164Z,100299.97
2022-08-17T03:46:27.312Z,100293.78
2022-08-17T03:49:14.439Z,100294.63
2022-08-17T03:51:59.400Z,100294.91
2022-08-17T03:54:44.314Z,100290.16
2022-08-17T03:57:12.510Z,100286.00
2022-08-17T03:59:39.336Z,100302.44
2022-08-17T04:02:11.394Z,100297.25
2022-08-17T04:04:39.274Z,100307.22
2022-08-17T04:07:06.917Z,100291.97
2022-08-17T04:09:33.992Z,100304.47
2022-08-17T04:12:02.325Z,100300.75
2022-08-17T04:14:52.000Z,100305.09
2022-08-17T04:17:26.199Z,100303.81
2022-08-17T04:19:53.796Z,100304.72
2022-08-17T04:22:32.375Z,100310.91
2022-08-17T04:25:03.522Z,100307.50
2022-08-17T04:27:30.040Z,100303.69
2022-08-17T04:29:56.525Z,100316.50
2022-08-17T04:32:59.294Z,100312.25
2022-08-17T04:35:10.002Z,100304.56
2022-08-17T04:37:36.590Z,100314.84
2022-08-17T04:40:39.214Z,100316.69
2022-08-17T04:43:18.840Z,100314.78
2022-08-17T04:46:00.331Z,100323.00
2022-08-17T04:48:36.499Z,100316.63
2022-08-17T04:51:20.482Z,100331.25
2022-08-17T04:53:54.062Z,100330.59
2022-08-17T04:56:22.235Z,100337.78
2022-08-17T04:58:50.819Z,100333.06
2022-08-17T05:01:23.290Z,100340.78
2022-08-17T05:03:52.150Z,100338.94
2022-08-17T05:06:18.673Z,100337.88
2022-08-17T05:08:45.215Z,100336.34
2022-08-17T05:11:11.765Z,100345.78
2022-08-17T05:13:38.314Z,100360.34
2022-08-17T05:16:05.638Z,100344.50
2022-08-17T05:18:32.647Z,100352.34
2022-08-17T05:20:59.401Z,100358.91
2022-08-17T05:23:42.098Z,100364.13
2022-08-17T05:26:15.255Z,100361.31
2022-08-17T05:28:54.993Z,100362.94
2022-08-17T05:31:24.329Z,100360.91
2022-08-17T05:33:50.926Z,100362.38
2022-08-17T05:36:41.565Z,100363.81
2022-08-17T05:39:04.241Z,100359.88
2022-08-17T05:41:30.712Z,100365.59
2022-08-17T05:43:57.272Z,100355.91
2022-08-17T05:46:27.487Z,100363.72
2022-08-17T05:49:02.318Z,100362.06
2022-08-17T05:51:31.793Z,100368.06
2022-08-17T05:54:08.291Z,100368.22
2022-08-17T05:56:43.939Z,100366.44
2022-08-17T05:59:22.774Z,100365.97
2022-08-17T06:02:02.815Z,100366.25
2022-08-17T06:04:52.796Z,100355.16
2022-08-17T06:07:31.778Z,100369.53
2022-08-17T06:10:19.569Z,100355.38
2022-08-17T06:13:07.942Z,100354.53
2022-08-17T06:16:01.762Z,100358.16
2022-08-17T06:18:41.767Z,100350.91
2022-08-17T06:21:13.157Z,100335.38
2022-08-17T06:23:45.131Z,100349.28
2022-08-17T06:26:17.487Z,100344.25
2022-08-17T06:29:00.339Z,100343.03
2022-08-17T06:31:31.371Z,100338.88
2022-08-17T06:34:00.199Z,100342.63
2022-08-17T06:36:40.128Z,100332.97
2022-08-17T06:39:19.938Z,100335.44
2022-08-17T06:42:05.567Z,100332.22
2022-08-17T06:44:43.492Z,100335.91
2022-08-17T06:47:29.380Z,100327.56
2022-08-17T06:50:05.607Z,100346.97
2022-08-17T06:52:46.671Z,100334.75
2022-08-17T06:55:26.406Z,100333.53
2022-08-17T06:57:59.002Z,100350.09
2022-08-17T07:00:36.835Z,100349.91
2022-08-17T07:03:14.810Z,100349.16
2022-08-17T07:05:46.456Z,100345.22
2022-08-17T07:08:13.126Z,100351.25
2022-08-17T07:10:51.058Z,100340.84
2022-08-17T07:13:38.114Z,100334.13
2022-08-17T07:16:14.659Z,100331.47
2022-08-17T07:18:41.805Z,100326.97
2022-08-17T07:21:25.844Z,100330.97
2022-08-17T07:24:31.377Z,100319.31
2022-08-17T07:27:16.449Z,100331.06
2022-08-17T07:30:10.347Z,100338.59
2022-08-17T07:32:45.226Z,100329.34
2022-08-17T07:35:37.900Z,100339.44
2022-08-17T07:38:24.957Z,100337.88
2022-08-17T07:41:02.624Z,100341.97
2022-08-17T07:43:41.616Z,100335.72
2022-08-17T07:46:41.692Z,100344.63
2022-08-17T07:49:11.184Z,100347.88
2022-08-17T07:51:53.677Z,100341.75
2022-08-17T07:54:28.756Z,100347.16
2022-08-17T07:57:03.442Z,100344.59
2022-08-17T07:59:36.075Z,100350.50
2022-08-17T08:02:20.134Z,100338.47
2022-08-17T08:05:01.456Z,100345.16
2022-08-17T08:08:00.683Z,100346.56
2022-08-17T08:10:38.068Z,100345.19
2022-08-17T08:13:10.700Z,100340.72
2022-08-17T08:15:54.336Z,100339.94
2022-08-17T08:18:53.787Z,100341.75
2022-08-17T08:21:33.821Z,100342.16
2022-08-17T08:24:00.339Z,100345.69
2022-08-17T08:26:55.359Z,100341.41
2022-08-17T08:29:35.654Z,100335.66
2022-08-17T08:32:18.190Z,100339.41
2022-08-17T08:35:04.327Z,100346.81
2022-08-17T08:37:37.893Z,100351.13
2022-08-17T08:40:34.847Z,100342.03
2022-08-17T08:43:02.311Z,100350.63
2022-08-17T08:45:38.431Z,100347.06
2022-08-17T08:48:53.333Z,100354.75
2022-08-17T08:51:35.820Z,100359.22
2022-08-17T08:54:34.539Z,100351.31
2022-08-17T08:57:26.845Z,100356.13
2022-08-17T09:00:17.152Z,100362.16
2022-08-17T09:03:08.398Z,100356.34
2022-08-17T09:05:50.082Z,100358.81
2022-08-17T09:08:32.317Z,100351.09
2022-08-17T09:11:18.199Z,100351.75
2022-08-17T09:13:55.517Z,100349.28
2022-08-17T09:16:29.664Z,100350.91
2022-08-17T09:19:08.474Z,100347.38
2022-08-17T09:21:48.786Z,100343.28
2022-08-17T09:24:43.406Z,100346.38
2022-08-17T09:27:26.698Z,100343.53
2022-08-17T09:29:59.026Z,100310.88
2022-08-17T09:32:38.279Z,100339.75
2022-08-17T09:35:15.983Z,100332.75
2022-08-17T09:38:05.209Z,100341.88
2022-08-17T09:40:34.536Z,100325.94
2022-08-17T09:43:10.029Z,100330.09
2022-08-17T09:45:50.559Z,100329.13
2022-08-17T09:48:38.473Z,100329.81
2022-08-17T09:51:15.274Z,100335.59
2022-08-17T09:53:44.541Z,100332.47
2022-08-17T09:56:36.398Z,100332.19
2022-08-17T09:59:20.086Z,100326.16
2022-08-17T10:01:58.705Z,100321.97
2022-08-17T10:04:40.817Z,100318.66
2022-08-17T10:07:15.401Z,100313.19
2022-08-17T10:10:03.941Z,100316.72
2022-08-17T10:12:53.182Z,100315.25
2022-08-17T10:15:40.813Z,100312.09
2022-08-17T10:18:17.635Z,100311.56
2022-08-17T10:21:21.501Z,100311.28
2022-08-17T10:24:15.855Z,100307.47
2022-08-17T10:26:57.057Z,100305.59
2022-08-17T10:29:49.639Z,100316.81
2022-08-17T10:32:32.148Z,100314.78
2022-08-17T10:35:01.713Z,100311.59
2022-08-17T10:37:46.568Z,100315.66
2022-08-17T10:40:30.369Z,100310.09
2022-08-17T10:43:19.188Z,100304.84
2022-08-17T10:46:09.531Z,100308.69
2022-08-17T10:49:18.144Z,100307.53
2022-08-17T10:51:52.841Z,100305.78
2022-08-17T10:54:25.004Z,100314.56
2022-08-17T10:56:54.170Z,100308.16
2022-08-17T10:59:35.716Z,100310.88
2022-08-17T11:02:12.256Z,100309.88
2022-08-17T11:04:47.884Z,100313.06
2022-08-17T11:07:32.815Z,100313.69
2022-08-17T11:10:08.407Z,100300.41
2022-08-17T11:12:54.239Z,100303.72
2022-08-17T11:15:47.362Z,100296.75
2022-08-17T11:18:41.802Z,100297.34
2022-08-17T11:21:15.170Z,100302.91
2022-08-17T11:24:06.049Z,100303.13
2022-08-17T11:26:35.809Z,100305.38
2022-08-17T11:29:08.884Z,100308.78
2022-08-17T11:31:40.129Z,100304.06
2022-08-17T11:34:21.895Z,100317.75
2022-08-17T11:37:19.584Z,100318.88
2022-08-17T11:40:20.634Z,100331.72
2022-08-17T11:42:58.988Z,100340.50
2022-08-17T11:45:50.006Z,100345.56
2022-08-17T11:48:48.062Z,100345.84
2022-08-17T11:51:36.201Z,100359.97
2022-08-17T11:54:31.728Z,100371.81
2022-08-17T11:56:54.886Z,100392.91
2022-08-17T11:59:33.311Z,100398.56
2022-08-17T12:02:02.604Z,100365.91
2022-08-17T12:04:34.782Z,100336.31
2022-08-17T12:07:17.689Z,100326.03
2022-08-17T12:09:48.594Z,100333.22
2022-08-17T12:12:22.802Z,100332.69
2022-08-17T12:15:11.007Z,100339.41
2022-08-17T12:17:40.837Z,100342.00
2022-08-17T12:20:21.390Z,100332.25
2022-08-17T12:23:01.045Z,100333.66
2022-08-17T12:25:40.306Z,100339.78
2022-08-17T12:28:22.861Z,100344.63
2022-08-17T12:30:52.030Z,100350.28
2022-08-17T12:33:25.547Z,100336.13
2022-08-17T12:36:08.627Z,100337.31
2022-08-17T12:38:37.893Z,100348.03
2022-08-17T12:41:25.393Z,100360.50
2022-08-17T12:44:03.924Z,100350.03
2022-08-17T12:46:34.838Z,100341.75
2022-08-17T12:49:30.054Z,100334.63
2022-08-17T12:52:08.991Z,100332.53
2022-08-17T12:54:47.563Z,100338.53
2022-08-17T12:57:19.013Z,100338.88
2022-08-17T12:59:50.520Z,100338.38
2022-08-17T13:02:24.551Z,100335.50
2022-08-17T13:04:51.346Z,100328.81
2022-08-17T13:07:35.668Z,100335.34
2022-08-17T13:10:03.997Z,100332.91
2022-08-17T13:12:34.367Z,100342.00
2022-08-17T13:15:01.536Z,100329.28
2022-08-17T13:17:31.863Z,100324.53
2022-08-17T13:19:58.929Z,100319.16
2022-08-17T13:22:27.859Z,100333.94
2022-08-17T13:24:58.310Z,100346.06
2022-08-17T13:27:27.684Z,100345.75
2022-08-17T13:30:00.479Z,100340.16
2022-08-17T13:32:45.033Z,100333.56
2022-08-17T13:35:40.578Z,100334.34
2022-08-17T13:38:11.703Z,100325.50
2022-08-17T13:40:52.230Z,100318.69
2022-08-17T13:43:40.674Z,100321.03
2022-08-17T13:46:11.561Z,100322.25
2022-08-17T13:48:38.996Z,100316.91
2022-08-17T13:51:14.158Z,100313.72
2022-08-17T13:53:40.632Z,100316.09
2022-08-17T13:56:37.249Z,100301.84
2022-08-17T13:59:05.069Z,100289.84
2022-08-17T14:01:36.088Z,100298.97
2022-08-17T14:04:06.998Z,100300.78
2022-08-17T14:06:52.915Z,100304.22
2022-08-17T14:09:26.846Z,100294.25
2022-08-17T14:11:55.535Z,100284.75
2022-08-17T14:14:25.344Z,100291.81
2022-08-17T14:16:53.758Z,100281.69
2022-08-17T14:19:22.039Z,100278.72
2022-08-17T14:21:49.699Z,100280.91
2022-08-17T14:24:24.148Z,100268.34
2022-08-17T14:26:52.950Z,100272.16
2022-08-17T14:29:20.793Z,100270.28
2022-08-17T14:31:53.287Z,100265.63
2022-08-17T14:34:21.578Z,100267.44
2022-08-17T14:36:48.873Z,100267.59
2022-08-17T14:39:17.733Z,100274.41
2022-08-17T14:41:44.670Z,100270.44
2022-08-17T14:44:12.600Z,100267.75
2022-08-17T14:46:40.892Z,100268.94
2022-08-17T14:49:08.935Z,100268.22
2022-08-17T14:51:43.580Z,100272.41
2022-08-17T14:54:11.282Z,100258.66
2022-08-17T14:56:38.603Z,100250.72
2022-08-17T14:59:05.178Z,100253.94
2022-08-17T15:01:31.890Z,100251.25
2022-08-17T15:03:58.529Z,100244.75
2022-08-17T15:06:25.024Z,100248.75
2022-08-17T15:08:51.622Z,100248.97
2022-08-17T15:11:18.316Z,100245.59
2022-08-17T15:13:52.692Z,100244.25
2022-08-17T15:16:20.405Z,100231.09
2022-08-17T15:18:46.933Z,100229.38
2022-08-17T15:21:14.842Z,100229.00
2022-08-17T15:23:41.537Z,100219.16
2022-08-17T15:26:10.797Z,100230.56
2022-08-17T15:28:37.754Z,100234.47
2022-08-17T15:31:05.690Z,100217.84
2022-08-17T15:33:32.888Z,100220.97
2022-08-17T15:36:02.874Z,100223.94
2022-08-17T15:38:30.481Z,100224.25
2022-08-17T15:40:58.384Z,100236.47
2022-08-17T15:43:28.366Z,100231.56
2022-08-17T15:46:18.634Z,100220.78
2022-08-17T15:48:48.327Z,100208.22
2022-08-17T15:51:27.433Z,100209.44
2022-08-17T15:54:00.256Z,100220.88
2022-08-17T15:56:31.682Z,100224.75
2022-08-17T15:58:58.828Z,100214.91
2022-08-17T16:01:57.406Z,100211.25
2022-08-17T16:04:29.711Z,100203.38
2022-08-17T16:06:57.911Z,100203.38
2022-08-17T16:09:24.483Z,100199.63
2022-08-17T16:11:55.332Z,100199.91
2022-08-17T16:14:23.156Z,100203.13
2022-08-17T16:16:51.049Z,100199.09
2022-08-17T16:19:19.881Z,100203.16
2022-08-17T16:21:46.499Z,100208.53
2022-08-17T16:24:13.647Z,100208.94
2022-08-17T16:26:42.202Z,100198.28
2022-08-17T16:29:09.036Z,100194.16
2022-08-17T16:31:38.790Z,100188.16
2022-08-17T16:34:17.671Z,100190.53
2022-08-17T16:36:55.636Z,100201.78
2022-08-17T16:39:28.861Z,100198.25
2022-08-17T16:41:56.550Z,100205.09
2022-08-17T16:44:23.188Z,100194.59
2022-08-17T16:46:50.345Z,100197.41
2022-08-17T16:49:25.799Z,100205.19
2022-08-17T16:52:06.343Z,100210.25
2022-08-17T16:54:35.423Z,100211.09
2022-08-17T16:57:04.874Z,100214.50
2022-08-17T16:59:40.914Z,100223.19
2022-08-17T17:02:11.085Z,100226.69
2022-08-17T17:04:51.917Z,100240.41
2022-08-17T17:07:40.236Z,100242.50
2022-08-17T17:10:15.585Z,100234.03
2022-08-17T17:13:02.871Z,100253.28
2022-08-17T17:15:47.234Z,100249.25
2022-08-17T17:18:15.821Z,100269.16
2022-08-17T17:20:54.566Z,100265.38
2022-08-17T17:23:46.084Z,100265.63
2022-08-17T17:26:39.645Z,100277.81
2022-08-17T17:29:46.535Z,100275.06
2022-08-17T17:32:24.679Z,100280.19
2022-08-17T17:34:59.531Z,100281.91
2022-08-17T17:37:34.104Z,100280.00
2022-08-17T17:40:12.466Z,100283.69
2022-08-17T17:42:42.162Z,100279.19
2022-08-17T17:45:25.827Z,100281.78
2022-08-17T17:47:53.481Z,100290.72
2022-08-17T17:50:26.535Z,100295.34
2022-08-17T17:53:04.039Z,100281.19
2022-08-17T17:55:47.130Z,100297.19
2022-08-17T17:58:42.578Z,100314.22
2022-08-17T18:01:27.669Z,100318.75
2022-08-17T18:04:20.516Z,100316.94
2022-08-17T18:07:18.793Z,100316.97
2022-08-17T18:10:29.350Z,100311.66
2022-08-17T18:13:13.229Z,100316.78
2022-08-17T18:15:52.132Z,100312.22
2022-08-17T18:18:33.083Z,100320.22
2022-08-17T18:21:06.848Z,100325.06
2022-08-17T18:23:34.126Z,100337.69
2022-08-17T18:26:02.000Z,100343.88
2022-08-17T18:28:28.472Z,100344.31
2022-08-17T18:31:04.081Z,100349.50
2022-08-17T18:33:30.627Z,100348.13
2022-08-17T18:35:58.755Z,100352.16
2022-08-17T18:38:33.849Z,100357.00
2022-08-17T18:41:25.887Z,100363.69
2022-08-17T18:44:06.436Z,100347.78
2022-08-17T18:46:37.755Z,100349.06
2022-08-17T18:49:26.179Z,100355.41
2022-08-17T18:52:16.190Z,100352.59
2022-08-17T18:55:13.758Z,100348.38
2022-08-17T18:57:46.872Z,100367.97
2022-08-17T19:00:13.691Z,100367.00
2022-08-17T19:02:58.756Z,100360.25
2022-08-17T19:05:27.795Z,100358.63
2022-08-17T19:07:54.852Z,100365.00
2022-08-17T19:10:28.791Z,100365.81
2022-08-17T19:13:00.718Z,100371.28
2022-08-17T19:15:35.506Z,100359.69
2022-08-17T19:18:34.698Z,100368.16
2022-08-17T19:21:20.502Z,100370.41
2022-08-17T19:23:53.377Z,100382.41
2022-08-17T19:26:55.382Z,100381.16
2022-08-17T19:29:16.607Z,100376.88
2022-08-17T19:31:46.325Z,100374.88
2022-08-17T19:34:17.582Z,100388.72
2022-08-17T19:37:07.529Z,100383.47
2022-08-17T19:40:02.133Z,100394.72
2022-08-17T19:42:41.187Z,100393.31
2022-08-17T19:45:19.362Z,100383.25
2022-08-17T19:48:21.064Z,100400.53
2022-08-17T19:51:01.328Z,100398.06
2022-08-17T19:54:04.758Z,100398.06
2022-08-17T19:56:47.676Z,100393.53
2022-08-17T19:59:52.170Z,100402.81
2022-08-17T20:02:31.411Z,100407.34
2022-08-17T20:05:00.088Z,100405.25
2022-08-17T20:07:36.846Z,100406.13
2022-08-17T20:10:11.048Z,100406.63
2022-08-17T20:12:41.151Z,100423.00
2022-08-17T20:15:38.950Z,100408.00
2022-08-17T20:18:13.577Z,100402.03
2022-08-17T20:20:55.949Z,100413.16
2022-08-17T20:23:44.851Z,100406.41
2022-08-17T20:26:34.341Z,100409.44
2022-08-17T20:29:37.232Z,100409.63
2022-08-17T20:32:17.984Z,100411.56
2022-08-17T20:34:47.209Z,100418.03
2022-08-17T20:37:13.608Z,100421.75
2022-08-17T20:39:40.281Z,100429.28
2022-08-17T20:42:22.565Z,100427.06
2022-08-17T20:44:52.548Z,100429.72
2022-08-17T20:47:27.475Z,100427.84
2022-08-17T20:50:27.110Z,100438.00
2022-08-17T20:52:57.959Z,100433.22
2022-08-17T20:55:52.945Z,100422.31
2022-08-17T20:58:23.190Z,100432.16
2022-08-17T21:00:58.944Z,100442.63
2022-08-17T21:03:32.253Z,100440.63
2022-08-17T21:06:18.130Z,100446.31
2022-08-17T21:09:18.861Z,100441.44
2022-08-17T21:12:04.423Z,100447.75
2022-08-17T21:14:40.913Z,100460.78
2022-08-17T21:17:31.617Z,100464.00
2022-08-17T21:20:27.418Z,100470.34
2022-08-17T21:23:13.080Z,100467.03
2022-08-17T21:25:57.892Z,100469.69
2022-08-17T21:29:00.742Z,100467.09
2022-08-17T21:31:40.011Z,100470.03
2022-08-17T21:34:15.459Z,100465.44
2022-08-17T21:36:43.844Z,100477.25
2022-08-17T21:39:14.207Z,100471.13
2022-08-17T21:41:52.694Z,100469.41
2022-08-17T21:44:30.939Z,100481.75
2022-08-17T21:47:13.890Z,100475.34
2022-08-17T21:49:40.419Z,100466.25
2022-08-17T21:52:07.465Z,100458.53
2022-08-17T21:54:38.736Z,100469.19
2022-08-17T21:57:14.809Z,100472.44
2022-08-17T21:59:43.608Z,100476.28
2022-08-17T22:02:22.646Z,100484.41
2022-08-17T22:05:07.371Z,100481.13
2022-08-17T22:07:53.071Z,100486.88
2022-08-17T22:10:34.564Z,100483.47
2022-08-17T22:13:16.881Z,100487.66
2022-08-17T22:15:47.506Z,100480.56
2022-08-17T22:18:22.900Z,100486.47
2022-08-17T22:20:52.223Z,100482.34
2022-08-17T22:24:00.690Z,100483.44
2022-08-17T22:27:00.199Z,100480.78
2022-08-17T22:29:45.473Z,100498.63
2022-08-17T22:32:31.118Z,100509.69
2022-08-17T22:35:16.279Z,100515.03
2022-08-17T22:37:42.896Z,100512.00
2022-08-17T22:40:09.522Z,100517.34
2022-08-17T22:42:47.378Z,100516.28
2022-08-17T22:45:14.243Z,100515.69
2022-08-17T22:47:48.446Z,100513.91
2022-08-17T22:50:25.578Z,100510.38
2022-08-17T22:53:20.129Z,100517.31
2022-08-17T22:56:13.757Z,100517.69
2022-08-17T22:59:15.900Z,100511.53
2022-08-17T23:01:45.404Z,100517.44
2022-08-17T23:04:36.742Z,100525.69
2022-08-17T23:07:03.428Z,100529.81
2022-08-17T23:11:59.772Z,100525.84
2022-08-17T23:14:31.648Z,100531.00
2022-08-17T23:16:59.352Z,100530.78
2022-08-17T23:19:27.284Z,100526.53
2022-08-17T23:21:56.256Z,100522.06
2022-08-17T23:24:26.924Z,100527.34
2022-08-17T23:26:57.174Z,100520.50
2022-08-17T23:29:24.831Z,100519.69
2022-08-17T23:31:52.693Z,100515.16
2022-08-17T23:34:19.569Z,100514.44
2022-08-17T23:36:50.644Z,100516.06
2022-08-17T23:39:24.697Z,100496.38
2022-08-17T23:42:00.336Z,100500.13
2022-08-17T23:44:28.773Z,100500.38
2022-08-17T23:46:55.346Z,100500.28
2022-08-17T23:49:23.454Z,100500.13
2022-08-17T23:51:50.313Z,100506.88
2022-08-17T23:54:28.763Z,100504.66
2022-08-17T23:56:55.408Z,100495.50
2022-08-17T23:59:23.116Z,100494.38
